Observations for MADISON DANE RGNL, WI (MSN)

KMSN 140810Z AUTO 00000KT 2 1/2SM BR CLR 18/18 A2999
KMSN 140810Z AUTO 00000KT 2 1/2SM BR CLR 18/18 A2999 RMK AO2 T01780178
KMSN 140821Z AUTO 00000KT 3SM BR CLR 18/17 A2999 RMK AO2 T01780172
KMSN 140753Z AUTO 00000KT 4SM BR CLR 18/18 A3000 RMK AO2 SLP152 T01780178   
KMSN 140653Z AUTO 00000KT 9SM CLR 19/18 A3000 RMK AO2 SLP153 T01890183  
KMSN 140553Z AUTO 00000KT 5SM BR CLR 19/19 A3001 RMK AO2 SLP156 T01890189 10283 20189 403060172 57002   
KMSN 140453Z AUTO 00000KT 8SM CLR 20/19 A3001 RMK AO2 SLP157 T02000189  
KMSN 140353Z 00000KT 9SM CLR 21/19 A3001 RMK AO2 SLP156 LAST T02110194  
KMSN 140253Z 23003KT 10SM CLR 22/19 A3001 RMK AO2 SLP158 T02170194 53006
KMSN 140153Z 24003KT 10SM CLR 23/19 A3001 RMK AO2 SLP157 T02280194  
KMSN 140053Z 00000KT 10SM CLR 26/19 A3000 RMK AO2 SLP152 T02610194  
KMSN 132353Z 29003KT 10SM FEW055 28/19 A3000 RMK AO2 SLP152 T02830189 10306 20283 56009 
KMSN 132253Z 27003KT 10SM FEW050 29/19 A3000 RMK AO2 SLP154 T02890194   
KMSN 132153Z VRB03KT 10SM SCT045 29/18 A3001 RMK AO2 SLP157 T02940183   
KMSN 132053Z 24004KT 10SM SCT045 30/19 A3002 RMK AO2 SLP162 T03000189 58017 
KMSN 131953Z VRB04KT 9SM SCT040 30/19 A3004 RMK AO2 SLP168 T03000194
KMSN 131853Z 29004KT 10SM BKN037 29/19 A3006 RMK AO2 SLP174 T02940189   
KMSN 131753Z 23006KT 9SM BKN037 29/19 A3008 RMK AO2 SLP179 T02890189 10294 20178 58012  
KMSN 131653Z VRB03KT 9SM SCT030 BKN055 28/21 A3009 RMK AO2 SLP184 T02780206 
KMSN 131553Z 33005KT 9SM SCT028 28/21 A3010 RMK AO2 SLP188 T02830211
KMSN 131453Z 00000KT 9SM CLR 27/21 A3011 RMK AO2 SLP192 T02720211 50002 
KMSN 131353Z 00000KT 7SM CLR 25/21 A3012 RMK AO2 SLP194 T02500206   
KMSN 131253Z 00000KT 8SM CLR 22/19 A3011 RMK AO2 SLP192 T02170189   
KMSN 131153Z 00000KT 6SM BR CLR 17/17 A3011 RMK AO2 SLP190 T01720167 10211 20172 55002  
KMSN 131053Z 00000KT 8SM CLR 17/17 A3010 RMK AO2 SLP187 T01720167   
KMSN 130953Z AUTO 00000KT 7SM CLR 18/17 A3011 RMK AO2 SLP190 T01780167  
KMSN 130853Z AUTO 00000KT 9SM CLR 18/17 A3011 RMK AO2 SLP191 T01830172 56006
KMSN 130753Z AUTO 00000KT 10SM CLR 18/18 A3012 RMK AO2 SLP194 T01830178